Time;durP1;ratioP1;P1;durP2;ratioP2;P2;SDS_P1;SDS_P2;PMS_P1;PMS_P2;Temp;Humidity;BMP_temperature;BMP_pressure;BME280_temperature;BME280_humidity;BME280_pressure;Samples;Min_cycle;Max_cycle;Signal;HPM_P1;HPM_P2
2023/08/18 00:02:15;;;;;;;4.70;3.25;;;;;;;20.66;100.00;98777.34;5007614;28;20062;-62
2023/08/18 00:04:41;;;;;;;6.68;3.47;;;;;;;20.64;100.00;98777.59;5017079;28;20025;-62
2023/08/18 00:07:07;;;;;;;4.15;3.00;;;;;;;20.56;100.00;98780.88;5017089;28;20028;-65
2023/08/18 00:09:33;;;;;;;7.00;3.40;;;;;;;20.46;100.00;98781.66;5013859;28;20462;-62
2023/08/18 00:11:58;;;;;;;6.65;3.92;;;;;;;20.47;100.00;98779.72;5012256;28;20029;-62
2023/08/18 00:14:23;;;;;;;6.93;3.60;;;;;;;20.36;100.00;98774.19;5014335;28;20040;-62
2023/08/18 00:16:49;;;;;;;6.15;3.45;;;;;;;20.34;100.00;98765.38;5017949;28;20045;-62
2023/08/18 00:19:14;;;;;;;7.10;3.85;;;;;;;20.32;100.00;98770.28;5014041;28;20026;-62
2023/08/18 00:21:40;;;;;;;9.65;3.97;;;;;;;20.22;100.00;98775.75;5010719;28;20028;-62
2023/08/18 00:24:05;;;;;;;6.18;3.83;;;;;;;20.11;100.00;98780.34;5014208;28;20037;-62
2023/08/18 00:26:31;;;;;;;7.95;3.70;;;;;;;20.04;100.00;98770.69;5013362;28;20018;-62
2023/08/18 00:28:56;;;;;;;8.32;3.58;;;;;;;20.00;100.00;98772.34;5013845;28;20025;-62
2023/08/18 00:31:24;;;;;;;6.43;3.70;;;;;;;19.90;100.00;98776.66;5013930;28;20458;-61
2023/08/18 00:33:50;;;;;;;8.00;3.53;;;;;;;19.89;100.00;98785.19;5013136;28;20112;-62
2023/08/18 00:36:15;;;;;;;8.23;4.22;;;;;;;19.79;100.00;98787.84;5011041;28;20117;-62
2023/08/18 00:38:40;;;;;;;5.53;3.47;;;;;;;19.73;100.00;98787.00;5012793;28;20061;-62
2023/08/18 00:41:06;;;;;;;9.55;4.03;;;;;;;19.65;100.00;98781.97;5009906;28;20033;-62
2023/08/18 00:43:31;;;;;;;9.18;4.00;;;;;;;19.59;100.00;98783.00;5014028;28;20476;-62
2023/08/18 00:45:57;;;;;;;6.18;3.67;;;;;;;19.62;100.00;98766.84;5014006;28;20029;-62
2023/08/18 00:48:23;;;;;;;8.98;4.10;;;;;;;19.68;100.00;98778.72;5005338;28;20109;-62
2023/08/18 00:50:49;;;;;;;8.77;3.80;;;;;;;19.64;100.00;98777.56;5013170;28;20386;-61
2023/08/18 00:53:15;;;;;;;6.78;3.70;;;;;;;19.61;100.00;98770.66;5011904;28;20037;-62
2023/08/18 00:55:40;;;;;;;5.03;3.40;;;;;;;19.64;100.00;98764.66;5013027;28;20683;-62
2023/08/18 00:58:06;;;;;;;8.02;3.67;;;;;;;19.75;100.00;98771.06;5010807;28;20030;-61
2023/08/18 01:00:31;;;;;;;8.02;3.47;;;;;;;19.82;100.00;98757.94;5006468;28;20032;-62
2023/08/18 01:02:58;;;;;;;9.45;3.63;;;;;;;19.84;100.00;98760.44;5012987;28;20107;-62
2023/08/18 01:05:24;;;;;;;5.35;3.03;;;;;;;19.80;100.00;98754.63;5012252;28;20498;-62
2023/08/18 01:07:50;;;;;;;8.57;3.63;;;;;;;19.73;100.00;98754.06;5009954;28;20033;-62
2023/08/18 01:10:15;;;;;;;8.98;3.70;;;;;;;19.64;100.00;98755.59;5010338;28;20036;-62
2023/08/18 01:13:00;;;;;;;7.85;3.63;;;;;;;19.46;100.00;98760.41;5012108;28;20034;-61
2023/08/18 01:15:38;;;;;;;7.82;3.60;;;;;;;19.40;100.00;98758.72;5011907;28;20388;-61
2023/08/18 01:18:04;;;;;;;7.20;3.83;;;;;;;19.36;100.00;98748.50;5021039;28;20088;-62
2023/08/18 01:20:31;;;;;;;5.03;3.50;;;;;;;19.41;100.00;98752.16;5014919;28;20412;-62
2023/08/18 01:22:57;;;;;;;7.60;3.60;;;;;;;19.48;100.00;98750.00;5013509;28;20496;-62
2023/08/18 01:25:23;;;;;;;7.28;3.20;;;;;;;19.54;100.00;98747.28;5013242;28;20033;-62
2023/08/18 01:27:50;;;;;;;9.05;3.38;;;;;;;19.52;100.00;98752.19;5012763;28;20140;-61
2023/08/18 01:30:16;;;;;;;8.93;3.28;;;;;;;19.38;100.00;98754.56;5021375;28;20048;-61
2023/08/18 01:32:51;;;;;;;8.60;3.40;;;;;;;19.24;100.00;98766.00;5011634;28;20453;-60
2023/08/18 01:35:18;;;;;;;7.82;3.42;;;;;;;19.16;100.00;98766.47;5011910;28;20030;-60
2023/08/18 01:37:46;;;;;;;7.32;3.88;;;;;;;19.10;100.00;98770.25;5008325;28;20032;-60
2023/08/18 01:40:16;;;;;;;6.68;3.67;;;;;;;19.05;100.00;98761.97;5012779;28;20072;-66
2023/08/18 01:42:41;;;;;;;8.48;3.20;;;;;;;19.01;100.00;98744.38;5077298;23;20041;-75
2023/08/18 01:45:11;;;;;;;9.98;3.17;;;;;;;19.03;100.00;98748.53;5025045;28;20029;-74
2023/08/18 01:47:36;;;;;;;5.78;3.17;;;;;;;19.16;100.00;98744.53;5031378;28;20021;-75
2023/08/18 01:50:01;;;;;;;6.22;2.53;;;;;;;19.40;100.00;98723.03;5018145;28;20490;-75
2023/08/18 01:52:27;;;;;;;4.75;2.60;;;;;;;19.61;100.00;98728.69;5025558;28;20033;-75
2023/08/18 01:54:52;;;;;;;4.65;2.85;;;;;;;19.66;100.00;98726.81;5030069;28;20033;-75
2023/08/18 01:57:17;;;;;;;4.30;2.45;;;;;;;19.62;100.00;98725.69;5029239;28;20028;-74
2023/08/18 01:59:43;;;;;;;5.63;2.47;;;;;;;19.60;100.00;98714.13;5031558;28;20045;-75
2023/08/18 02:02:08;;;;;;;9.43;3.03;;;;;;;19.55;100.00;98705.88;5055435;28;20029;-75
2023/08/18 02:04:33;;;;;;;7.65;2.40;;;;;;;19.58;100.00;98712.75;5036929;28;20029;-75
2023/08/18 02:06:58;;;;;;;5.47;2.25;;;;;;;19.53;100.00;98696.25;5024435;28;20044;-75
2023/08/18 02:09:24;;;;;;;4.40;2.30;;;;;;;19.44;100.00;98702.22;5026850;28;20036;-74
2023/08/18 02:11:49;;;;;;;6.82;2.60;;;;;;;19.38;100.00;98708.75;5039139;28;20494;-75
2023/08/18 02:14:14;;;;;;;8.32;3.22;;;;;;;19.30;100.00;98722.97;5032488;28;20036;-75
2023/08/18 02:16:41;;;;;;;9.35;3.35;;;;;;;19.08;100.00;98711.28;5032370;28;20029;-76
2023/08/18 02:19:06;;;;;;;6.03;2.78;;;;;;;18.94;100.00;98736.38;5028378;28;20052;-75
2023/08/18 02:21:32;;;;;;;5.72;3.42;;;;;;;18.87;100.00;98735.75;5035694;28;20029;-75
2023/08/18 02:23:58;;;;;;;5.93;3.20;;;;;;;18.73;100.00;98723.50;5034435;28;20029;-75
2023/08/18 02:26:23;;;;;;;7.20;2.85;;;;;;;18.74;100.00;98736.13;5026976;28;20063;-75
2023/08/18 02:28:48;;;;;;;4.20;2.95;;;;;;;18.72;100.00;98727.34;5031701;28;20379;-74
2023/08/18 02:31:14;;;;;;;7.95;2.63;;;;;;;18.69;100.00;98722.38;5038417;28;20033;-75
2023/08/18 02:33:39;;;;;;;6.35;3.00;;;;;;;18.70;100.00;98733.06;5030870;28;20100;-75
2023/08/18 02:36:05;;;;;;;11.02;2.97;;;;;;;18.72;100.00;98735.56;5044910;28;20036;-75
2023/08/18 02:38:32;;;;;;;10.40;2.75;;;;;;;18.66;100.00;98720.16;5031550;28;20025;-75
2023/08/18 02:40:58;;;;;;;6.72;2.65;;;;;;;18.60;100.00;98720.13;5029007;28;20029;-75
2023/08/18 02:43:24;;;;;;;7.53;2.67;;;;;;;18.65;100.00;98727.53;5036015;28;20101;-75
2023/08/18 02:45:57;;;;;;;4.95;2.45;;;;;;;18.68;100.00;98728.94;5025112;28;20406;-75
2023/08/18 02:48:26;;;;;;;3.97;2.45;;;;;;;18.63;100.00;98724.25;5040374;28;20036;-74
2023/08/18 02:51:04;;;;;;;6.75;2.83;;;;;;;18.55;100.00;98724.72;5030909;28;20159;-74
2023/08/18 02:53:29;;;;;;;5.55;2.75;;;;;;;18.50;100.00;98710.97;5023942;28;20079;-75
2023/08/18 02:55:55;;;;;;;7.72;2.63;;;;;;;18.51;100.00;98712.59;5037726;28;20033;-75
2023/08/18 02:58:21;;;;;;;6.38;2.75;;;;;;;18.47;100.00;98723.25;5036586;28;20035;-76
2023/08/18 03:00:47;;;;;;;10.20;2.65;;;;;;;18.42;100.00;98695.81;5045467;28;20633;-75
2023/08/18 03:03:12;;;;;;;6.60;2.72;;;;;;;18.44;100.00;98701.00;5033072;28;20051;-75
2023/08/18 03:05:37;;;;;;;5.30;2.33;;;;;;;18.34;100.00;98701.75;5027651;28;20033;-75
2023/08/18 03:08:03;;;;;;;7.80;2.67;;;;;;;18.37;100.00;98703.97;5031096;28;20386;-74
2023/08/18 03:10:28;;;;;;;6.50;2.70;;;;;;;18.33;100.00;98706.38;5030540;28;20039;-74
2023/08/18 03:12:54;;;;;;;5.35;2.60;;;;;;;18.31;100.00;98713.19;5040664;28;20024;-76
2023/08/18 03:15:19;;;;;;;4.43;2.47;;;;;;;18.24;100.00;98705.19;5033226;28;20490;-75
2023/08/18 03:17:45;;;;;;;4.07;2.42;;;;;;;18.26;100.00;98711.22;5035592;28;20068;-75
2023/08/18 03:20:10;;;;;;;4.35;2.60;;;;;;;18.34;100.00;98713.53;5034725;28;20448;-74
2023/08/18 03:22:36;;;;;;;5.03;2.42;;;;;;;18.35;100.00;98715.16;5044712;28;20059;-76
2023/08/18 03:25:02;;;;;;;5.20;2.53;;;;;;;18.37;100.00;98712.19;5035479;28;20054;-74
2023/08/18 03:27:27;;;;;;;6.38;3.00;;;;;;;18.33;100.00;98700.06;5042110;28;20063;-75
2023/08/18 03:29:55;;;;;;;4.18;2.38;;;;;;;18.40;100.00;98711.66;5054957;28;20068;-74
2023/08/18 03:32:20;;;;;;;8.55;2.53;;;;;;;18.36;100.00;98721.47;5033223;28;20052;-74
2023/08/18 03:34:47;;;;;;;7.13;2.90;;;;;;;18.33;100.00;98716.50;5039640;28;20048;-74
2023/08/18 03:37:12;;;;;;;3.20;2.60;;;;;;;18.29;100.00;98705.25;5025950;28;20475;-75
2023/08/18 03:39:38;;;;;;;5.18;2.60;;;;;;;18.18;100.00;98707.03;5050968;28;20029;-74
2023/08/18 03:42:03;;;;;;;3.97;2.30;;;;;;;18.20;100.00;98711.41;5044165;28;20034;-74
2023/08/18 03:44:28;;;;;;;5.00;2.78;;;;;;;18.11;100.00;98703.66;5042866;28;20385;-74
2023/08/18 03:46:54;;;;;;;7.07;3.10;;;;;;;18.12;100.00;98710.78;5037257;28;20030;-74
2023/08/18 03:49:19;;;;;;;6.97;2.78;;;;;;;18.25;100.00;98720.50;5041639;28;20544;-74
2023/08/18 03:51:45;;;;;;;4.25;2.42;;;;;;;18.22;100.00;98720.22;5029850;28;20028;-75
2023/08/18 03:54:10;;;;;;;5.47;2.45;;;;;;;18.12;100.00;98710.78;5028740;28;20038;-80
2023/08/18 03:56:35;;;;;;;12.20;3.00;;;;;;;18.08;100.00;98695.94;5035108;28;20037;-73
2023/08/18 03:59:01;;;;;;;6.00;2.83;;;;;;;18.13;100.00;98708.84;5036334;28;20113;-77
2023/08/18 04:01:26;;;;;;;7.90;2.50;;;;;;;18.12;100.00;98709.94;5034670;28;20029;-72
2023/08/18 04:03:51;;;;;;;4.72;2.78;;;;;;;18.12;100.00;98715.44;5038294;28;20060;-72
2023/08/18 04:06:16;;;;;;;6.60;2.45;;;;;;;18.14;100.00;98713.25;5044934;28;20026;-72
2023/08/18 04:08:43;;;;;;;3.75;2.50;;;;;;;18.12;100.00;98721.72;5042202;28;20240;-80
2023/08/18 04:11:10;;;;;;;7.25;2.50;;;;;;;18.08;100.00;98720.59;5038772;28;20033;-75
2023/08/18 04:13:36;;;;;;;5.55;2.67;;;;;;;18.09;100.00;98727.72;5037861;28;20025;-83
2023/08/18 04:16:02;;;;;;;5.53;2.72;;;;;;;17.89;100.00;98724.69;5035132;28;20037;-80
2023/08/18 04:18:28;;;;;;;5.85;2.40;;;;;;;17.78;100.00;98712.75;5036677;28;20087;-81
2023/08/18 04:20:53;;;;;;;4.38;2.45;;;;;;;17.80;100.00;98707.91;5033406;28;20433;-79
2023/08/18 04:23:19;;;;;;;6.78;2.40;;;;;;;17.82;100.00;98711.22;5036872;28;20025;-79
2023/08/18 04:25:44;;;;;;;6.18;2.97;;;;;;;17.85;100.00;98705.22;5063790;28;20029;-79
2023/08/18 04:28:10;;;;;;;3.47;2.10;;;;;;;18.05;100.00;98710.16;5048426;28;20060;-78
2023/08/18 04:30:36;;;;;;;7.47;2.70;;;;;;;17.95;100.00;98699.06;5034257;28;20025;-79
2023/08/18 04:33:02;;;;;;;4.18;2.20;;;;;;;18.00;100.00;98710.09;5043906;28;20112;-79
2023/08/18 04:35:27;;;;;;;8.15;2.33;;;;;;;17.99;100.00;98713.06;5032100;28;20457;-80
2023/08/18 04:37:53;;;;;;;4.22;2.38;;;;;;;18.01;100.00;98730.91;5032345;28;20029;-79
2023/08/18 04:40:18;;;;;;;5.07;2.42;;;;;;;17.98;100.00;98728.66;5036209;28;20093;-80
2023/08/18 04:42:43;;;;;;;5.90;2.45;;;;;;;18.08;100.00;98739.75;5036225;28;20025;-79
2023/08/18 04:45:09;;;;;;;4.18;2.35;;;;;;;18.06;100.00;98746.56;5044528;28;20390;-81
2023/08/18 04:47:35;;;;;;;8.70;2.58;;;;;;;18.06;100.00;98741.09;5044118;28;20013;-77
2023/08/18 04:50:00;;;;;;;6.07;2.50;;;;;;;18.11;100.00;98733.78;5032157;28;20076;-78
2023/08/18 04:52:25;;;;;;;5.20;2.25;;;;;;;18.25;100.00;98752.56;5045249;28;20151;-79
2023/08/18 04:54:51;;;;;;;6.47;2.35;;;;;;;18.16;100.00;98735.75;5037413;28;20475;-79
2023/08/18 04:57:17;;;;;;;7.00;2.40;;;;;;;18.28;100.00;98744.66;5039403;28;20029;-77
2023/08/18 04:59:42;;;;;;;4.97;2.50;;;;;;;18.33;100.00;98749.38;5033810;28;20021;-77
2023/08/18 05:02:07;;;;;;;3.38;2.10;;;;;;;18.53;100.00;98755.09;5041353;28;20025;-77
2023/08/18 05:04:32;;;;;;;7.22;2.20;;;;;;;18.67;100.00;98751.94;5047879;28;20021;-78
2023/08/18 05:06:58;;;;;;;3.35;2.05;;;;;;;18.67;100.00;98733.59;5036966;28;20418;-78
2023/08/18 05:09:23;;;;;;;4.63;2.17;;;;;;;18.77;100.00;98736.47;5031104;28;20028;-78
2023/08/18 05:11:48;;;;;;;8.10;2.30;;;;;;;18.74;100.00;98728.75;5022761;28;20365;-79
2023/08/18 05:14:14;;;;;;;6.32;2.38;;;;;;;18.95;100.00;98731.72;5033080;28;20029;-78
2023/08/18 05:16:39;;;;;;;5.80;1.95;;;;;;;19.17;100.00;98748.09;5029989;28;20112;-74
2023/08/18 05:19:05;;;;;;;4.18;2.53;;;;;;;19.19;100.00;98730.28;5037802;28;20021;-73
2023/08/18 05:21:30;;;;;;;4.63;2.30;;;;;;;19.36;100.00;98734.81;5034906;28;20029;-74
2023/08/18 05:23:56;;;;;;;7.45;2.58;;;;;;;19.37;100.00;98744.69;5027329;28;20021;-74
2023/08/18 05:26:21;;;;;;;3.58;2.08;;;;;;;19.44;100.00;98732.41;5036338;28;20498;-73
2023/08/18 05:28:47;;;;;;;3.25;2.20;;;;;;;19.63;100.00;98735.56;5038286;28;20021;-73
2023/08/18 05:31:13;;;;;;;6.57;2.40;;;;;;;19.82;100.00;98738.72;5021629;28;20071;-73
2023/08/18 05:33:39;;;;;;;7.32;2.47;;;;;;;19.98;100.00;98739.63;5025255;28;20021;-74
2023/08/18 05:36:05;;;;;;;7.60;2.20;;;;;;;20.18;100.00;98738.94;5029697;28;20508;-73
2023/08/18 05:38:31;;;;;;;6.63;2.17;;;;;;;20.27;100.00;98725.50;5036551;28;20032;-83
2023/08/18 05:41:07;;;;;;;8.70;2.20;;;;;;;20.47;100.00;98739.31;5033101;28;20083;-80
2023/08/18 05:43:37;;;;;;;11.05;2.28;;;;;;;20.69;100.00;98730.88;5058278;28;20128;-72
2023/08/18 05:46:03;;;;;;;3.95;1.90;;;;;;;21.06;100.00;98745.53;5027451;28;20076;-77
2023/08/18 05:48:29;;;;;;;6.13;1.90;;;;;;;21.24;100.00;98740.31;5040209;28;20032;-74
2023/08/18 05:50:54;;;;;;;3.90;2.10;;;;;;;21.53;100.00;98738.97;5025703;28;20471;-76
2023/08/18 05:53:21;;;;;;;7.00;1.90;;;;;;;21.78;100.00;98730.66;5032095;28;20040;-79
2023/08/18 05:55:46;;;;;;;3.00;1.80;;;;;;;22.06;100.00;98740.25;5029869;28;20025;-72
2023/08/18 05:58:12;;;;;;;4.15;1.90;;;;;;;22.15;100.00;98737.72;5032772;28;20430;-71
2023/08/18 06:00:37;;;;;;;3.63;1.98;;;;;;;22.35;100.00;98734.09;5029400;28;20049;-72
2023/08/18 06:03:02;;;;;;;3.10;1.63;;;;;;;22.66;100.00;98728.41;5029343;28;20037;-72
2023/08/18 06:05:28;;;;;;;5.57;2.17;;;;;;;23.58;100.00;98725.84;5043480;28;20025;-72
2023/08/18 06:07:54;;;;;;;5.38;1.92;;;;;;;25.81;100.00;98724.22;5037800;28;20111;-76
2023/08/18 06:10:20;;;;;;;4.03;1.80;;;;;;;28.36;100.00;98722.94;5041144;28;20031;-73
2023/08/18 06:12:45;;;;;;;4.28;1.77;;;;;;;30.26;100.00;98716.81;5031218;28;20033;-83
2023/08/18 06:15:12;;;;;;;5.32;2.20;;;;;;;31.82;85.27;98723.16;5035994;28;20029;-81
2023/08/18 06:17:40;;;;;;;7.97;1.90;;;;;;;32.30;77.55;98721.59;5036660;28;20498;-83
2023/08/18 06:20:06;;;;;;;1.87;1.40;;;;;;;33.59;73.48;98731.19;5036882;28;20029;-83
2023/08/18 06:22:32;;;;;;;3.78;1.88;;;;;;;33.69;66.25;98725.03;5046817;28;20037;-76
2023/08/18 06:24:57;;;;;;;3.72;1.50;;;;;;;33.60;66.77;98733.63;5030609;28;20033;-77
2023/08/18 06:27:22;;;;;;;3.05;1.27;;;;;;;33.83;63.85;98733.06;5026818;28;20032;-80
2023/08/18 06:29:48;;;;;;;3.70;1.33;;;;;;;33.73;63.01;98719.53;5029783;28;20030;-80
2023/08/18 06:32:13;;;;;;;4.68;1.70;;;;;;;33.49;63.36;98728.88;5035787;28;20108;-82
2023/08/18 06:34:38;;;;;;;4.25;1.45;;;;;;;33.95;62.72;98732.13;5054512;28;20037;-82
2023/08/18 06:37:04;;;;;;;3.38;1.63;;;;;;;34.29;59.23;98725.00;5039569;28;20036;-79
2023/08/18 06:39:29;;;;;;;4.75;1.60;;;;;;;34.14;59.21;98737.91;5037165;28;20044;-84
2023/08/18 06:41:55;;;;;;;4.50;1.83;;;;;;;35.30;58.58;98742.22;5032656;28;20407;-75
2023/08/18 06:44:20;;;;;;;3.97;1.38;;;;;;;35.51;57.13;98739.84;5034395;28;20585;-74
2023/08/18 06:46:46;;;;;;;2.97;1.60;;;;;;;36.71;54.79;98746.41;5037306;28;20028;-81
2023/08/18 06:49:11;;;;;;;4.60;1.52;;;;;;;37.46;52.04;98744.63;5033932;28;20025;-82
2023/08/18 06:51:37;;;;;;;5.27;1.60;;;;;;;37.62;50.17;98739.59;5042192;28;20087;-77
2023/08/18 06:54:02;;;;;;;2.72;1.33;;;;;;;38.47;47.70;98738.88;5029125;28;20358;-77
2023/08/18 06:56:27;;;;;;;6.35;1.52;;;;;;;38.21;47.57;98741.84;5029279;28;20063;-79
2023/08/18 06:58:54;;;;;;;1.45;1.17;;;;;;;37.84;47.42;98734.22;5028389;28;20147;-80
2023/08/18 07:01:19;;;;;;;2.23;1.07;;;;;;;38.09;47.06;98752.22;5039064;28;20483;-81
2023/08/18 07:03:45;;;;;;;3.83;1.20;;;;;;;38.86;45.44;98743.97;5040241;28;20275;-83
2023/08/18 07:06:10;;;;;;;1.95;1.20;;;;;;;39.14;43.56;98739.69;5045797;28;20028;-82
2023/08/18 07:08:36;;;;;;;2.58;1.17;;;;;;;38.95;43.95;98746.47;5038635;28;22434;-80
2023/08/18 07:11:02;;;;;;;4.28;1.27;;;;;;;38.75;44.42;98743.06;5061388;28;20032;-78
2023/08/18 07:13:28;;;;;;;1.13;0.88;;;;;;;39.18;43.82;98730.03;5044143;28;20052;-79
2023/08/18 07:15:54;;;;;;;2.78;1.13;;;;;;;38.66;44.08;98736.97;5026105;28;20053;-75
2023/08/18 07:18:19;;;;;;;3.30;1.27;;;;;;;38.91;44.28;98739.97;5030836;28;20068;-73
2023/08/18 07:20:45;;;;;;;4.97;0.98;;;;;;;38.32;43.52;98742.75;5039544;28;20020;-74
2023/08/18 07:23:11;;;;;;;2.13;0.85;;;;;;;38.73;43.82;98745.50;5033252;28;20056;-73
2023/08/18 07:25:37;;;;;;;3.72;1.17;;;;;;;37.99;44.00;98752.13;5038900;28;20029;-74
2023/08/18 07:28:03;;;;;;;2.63;1.15;;;;;;;39.02;43.56;98746.53;5027172;28;20037;-82
2023/08/18 07:30:28;;;;;;;3.78;0.85;;;;;;;39.29;43.20;98734.91;5037710;28;20587;-82
2023/08/18 07:32:56;;;;;;;1.70;0.98;;;;;;;39.27;42.71;98726.81;5034577;28;20021;-75
2023/08/18 07:35:22;;;;;;;3.55;1.40;;;;;;;39.00;43.31;98734.78;5031558;28;20052;-76
2023/08/18 07:37:48;;;;;;;1.92;1.00;;;;;;;39.24;42.44;98736.91;5030975;28;20037;-75
2023/08/18 07:40:13;;;;;;;1.98;0.93;;;;;;;39.35;42.08;98736.97;5032399;28;20429;-76
2023/08/18 07:42:39;;;;;;;3.10;1.00;;;;;;;40.14;42.17;98742.88;5030052;28;20547;-85
2023/08/18 07:45:06;;;;;;;2.67;0.85;;;;;;;39.99;40.23;98744.88;5033580;28;20029;-74
2023/08/18 07:47:31;;;;;;;3.08;1.15;;;;;;;40.98;40.40;98739.59;5029517;28;20025;-73
2023/08/18 07:49:56;;;;;;;2.35;0.90;;;;;;;38.57;43.62;98755.09;5050820;28;20028;-74
2023/08/18 07:52:22;;;;;;;2.28;1.13;;;;;;;39.97;41.24;98752.16;5029347;28;20121;-74
2023/08/18 07:54:47;;;;;;;3.03;1.00;;;;;;;39.97;42.06;98743.66;5027851;28;20509;-74
2023/08/18 07:57:12;;;;;;;4.75;1.20;;;;;;;40.76;41.00;98744.50;5032191;28;20034;-74
2023/08/18 07:59:37;;;;;;;6.23;1.20;;;;;;;40.51;41.29;98750.19;5033312;28;20021;-74
2023/08/18 08:02:03;;;;;;;3.37;1.07;;;;;;;41.04;40.39;98746.47;5034104;28;20275;-75
2023/08/18 08:04:29;;;;;;;2.70;1.00;;;;;;;41.45;39.58;98742.28;5041647;28;20684;-75
2023/08/18 08:06:56;;;;;;;2.28;1.10;;;;;;;41.83;39.07;98737.63;5033859;28;20422;-77
2023/08/18 08:09:24;;;;;;;6.28;0.98;;;;;;;42.31;38.60;98736.06;5038719;28;20033;-77
2023/08/18 08:11:50;;;;;;;5.10;1.13;;;;;;;42.66;38.64;98743.53;5032409;28;20032;-75
2023/08/18 08:14:15;;;;;;;2.30;0.85;;;;;;;42.64;39.14;98741.09;5030257;28;20717;-76
2023/08/18 08:16:41;;;;;;;5.20;1.10;;;;;;;42.68;38.73;98741.03;5031605;28;20120;-75
2023/08/18 08:19:06;;;;;;;2.57;1.00;;;;;;;41.66;39.39;98730.00;5027055;28;20117;-75
2023/08/18 08:21:32;;;;;;;2.25;1.10;;;;;;;41.72;39.73;98731.22;5035105;28;20280;-75
2023/08/18 08:23:57;;;;;;;7.40;1.10;;;;;;;43.10;38.29;98725.56;5031852;28;20593;-76
2023/08/18 08:26:23;;;;;;;2.78;1.00;;;;;;;43.11;38.51;98732.06;5034207;28;20450;-75
2023/08/18 08:28:48;;;;;;;4.57;1.15;;;;;;;42.54;38.79;98729.81;5047778;28;20108;-75
2023/08/18 08:31:13;;;;;;;2.70;1.20;;;;;;;42.74;37.73;98727.97;5027313;28;20126;-75
2023/08/18 08:33:39;;;;;;;3.33;1.20;;;;;;;43.41;37.16;98731.31;5032991;28;20264;-74
2023/08/18 08:36:04;;;;;;;2.77;1.20;;;;;;;42.98;37.13;98736.72;5017409;28;20296;-75
2023/08/18 08:38:30;;;;;;;2.25;1.00;;;;;;;42.86;38.53;98738.03;5038528;28;20267;-75
2023/08/18 08:40:59;;;;;;;3.30;0.90;;;;;;;42.40;37.75;98734.41;5036713;28;20040;-75
2023/08/18 08:43:24;;;;;;;3.78;1.20;;;;;;;42.86;37.25;98730.31;5043926;28;20764;-75
2023/08/18 08:45:51;;;;;;;3.22;0.90;;;;;;;42.90;37.31;98719.69;5056934;28;20112;-75
2023/08/18 08:48:18;;;;;;;3.05;1.10;;;;;;;43.21;36.97;98728.31;5051594;28;20628;-75
2023/08/18 08:50:47;;;;;;;2.97;1.05;;;;;;;43.80;36.29;98729.19;5034176;28;20033;-75
2023/08/18 08:53:19;;;;;;;3.25;1.23;;;;;;;42.70;36.76;98715.81;5040246;28;20032;-75
2023/08/18 08:55:46;;;;;;;1.25;0.75;;;;;;;43.03;37.57;98722.00;5055205;28;20108;-75
2023/08/18 08:58:12;;;;;;;5.50;0.93;;;;;;;43.78;37.35;98729.59;5028271;28;20046;-75
2023/08/18 09:00:38;;;;;;;2.58;1.20;;;;;;;43.55;37.49;98728.28;5028696;28;20075;-75
2023/08/18 09:03:06;;;;;;;3.97;1.13;;;;;;;43.79;37.70;98728.38;5031067;28;20025;-76
2023/08/18 09:05:33;;;;;;;1.52;0.93;;;;;;;44.82;36.35;98730.78;5031314;28;20021;-75
2023/08/18 09:07:59;;;;;;;3.97;0.90;;;;;;;44.73;34.79;98734.19;5034293;28;20203;-75
2023/08/18 09:10:26;;;;;;;3.78;1.00;;;;;;;44.58;34.41;98730.78;5040222;28;20032;-75
2023/08/18 09:12:51;;;;;;;3.03;1.00;;;;;;;44.39;35.45;98728.69;5033894;28;20509;-75
2023/08/18 09:15:17;;;;;;;4.03;1.10;;;;;;;44.92;33.80;98735.47;5025868;28;20046;-75
2023/08/18 09:17:45;;;;;;;4.55;0.90;;;;;;;44.23;34.91;98723.63;5039152;28;20017;-75
2023/08/18 09:20:14;;;;;;;3.40;0.95;;;;;;;44.91;34.30;98733.88;5036449;28;20477;-75
2023/08/18 09:22:40;;;;;;;2.35;1.00;;;;;;;43.75;34.51;98719.84;5041533;28;20568;-75
2023/08/18 09:25:07;;;;;;;4.05;1.35;;;;;;;44.53;34.36;98724.78;5039562;28;20021;-75
2023/08/18 09:27:33;;;;;;;5.03;1.20;;;;;;;43.47;36.29;98712.53;5029973;28;20056;-75
2023/08/18 09:29:58;;;;;;;2.30;0.98;;;;;;;42.96;35.17;98722.88;5030259;28;20049;-75
2023/08/18 09:32:24;;;;;;;1.60;0.73;;;;;;;43.63;34.58;98717.63;5030231;28;20029;-75
2023/08/18 09:34:50;;;;;;;1.70;0.82;;;;;;;43.03;35.67;98713.47;5028123;28;20275;-75
2023/08/18 09:37:16;;;;;;;2.78;0.90;;;;;;;44.35;33.84;98716.50;5030112;28;20075;-75
2023/08/18 09:39:42;;;;;;;2.42;1.10;;;;;;;44.11;34.12;98721.38;5030131;28;20025;-75
2023/08/18 09:42:08;;;;;;;2.38;0.75;;;;;;;43.46;34.89;98727.19;5029657;28;20537;-76
2023/08/18 09:44:34;;;;;;;2.30;0.85;;;;;;;44.07;34.62;98720.63;5033128;28;20502;-75
2023/08/18 09:47:03;;;;;;;4.93;1.10;;;;;;;44.78;34.28;98708.03;5025808;28;20025;-75
2023/08/18 09:49:34;;;;;;;2.58;0.93;;;;;;;44.77;34.07;98717.00;5025667;28;20033;-75
2023/08/18 09:52:05;;;;;;;2.72;0.82;;;;;;;45.31;32.14;98713.09;5029092;28;20134;-75
2023/08/18 09:54:37;;;;;;;3.75;1.15;;;;;;;43.52;33.05;98694.94;5026030;28;20022;-74
2023/08/18 09:57:15;;;;;;;1.50;0.60;;;;;;;43.48;33.29;98701.94;5029822;28;20124;-76
2023/08/18 09:59:59;;;;;;;2.22;0.80;;;;;;;43.31;33.36;98696.06;5033489;28;20422;-73
2023/08/18 10:02:36;;;;;;;2.50;0.70;;;;;;;43.29;33.33;98700.56;5036316;28;20025;-73
2023/08/18 10:05:03;;;;;;;3.95;0.90;;;;;;;44.66;31.86;98687.84;5040596;28;20433;-73
2023/08/18 10:07:30;;;;;;;1.88;0.80;;;;;;;44.79;32.12;98694.56;5031846;28;20044;-73
2023/08/18 10:09:56;;;;;;;1.50;0.60;;;;;;;44.17;31.78;98694.78;5021300;28;20124;-73
2023/08/18 10:12:22;;;;;;;1.63;0.60;;;;;;;42.93;32.99;98683.09;5031879;28;20083;-73
2023/08/18 10:14:49;;;;;;;3.72;1.00;;;;;;;43.10;33.05;98694.25;5036092;28;20036;-73
2023/08/18 10:17:15;;;;;;;1.15;0.80;;;;;;;43.25;33.11;98689.19;5030319;28;20030;-73
2023/08/18 10:19:46;;;;;;;3.88;1.58;;;;;;;43.29;33.19;98692.81;5023468;28;20066;-73
2023/08/18 10:22:11;;;;;;;2.42;0.98;;;;;;;43.04;32.98;98690.25;5029248;28;20423;-73
2023/08/18 10:24:37;;;;;;;2.78;1.00;;;;;;;43.44;33.03;98696.28;5021980;28;20025;-73
2023/08/18 10:27:06;;;;;;;2.90;1.10;;;;;;;44.38;32.72;98692.84;5038560;28;20053;-73
2023/08/18 10:29:34;;;;;;;2.80;0.93;;;;;;;44.25;32.96;98691.81;5015392;28;20507;-73
2023/08/18 10:32:07;;;;;;;1.67;0.85;;;;;;;44.18;33.51;98695.63;5028267;28;20038;-73
2023/08/18 10:34:32;;;;;;;3.22;0.70;;;;;;;44.79;32.21;98697.41;5024517;28;20128;-73
2023/08/18 10:36:58;;;;;;;1.17;0.50;;;;;;;43.44;32.36;98692.59;5037907;28;20044;-73
2023/08/18 10:39:25;;;;;;;2.28;0.60;;;;;;;44.27;30.82;98686.50;5035447;28;20059;-73
2023/08/18 10:42:04;;;;;;;1.83;0.77;;;;;;;44.48;32.24;98683.28;5027437;28;20056;-73
2023/08/18 10:44:29;;;;;;;1.75;0.82;;;;;;;44.11;30.98;98692.88;5040488;28;20063;-72
2023/08/18 10:46:55;;;;;;;1.13;0.57;;;;;;;43.17;32.36;98681.19;5024322;28;20057;-72
2023/08/18 10:49:20;;;;;;;1.23;0.68;;;;;;;43.59;31.59;98676.97;5030602;28;20029;-72
2023/08/18 10:51:52;;;;;;;2.37;0.87;;;;;;;43.19;32.86;98662.44;5034253;28;20543;-72
2023/08/18 10:54:18;;;;;;;3.03;0.80;;;;;;;43.64;32.18;98684.22;5034333;28;20312;-72
2023/08/18 10:56:43;;;;;;;2.90;0.70;;;;;;;42.50;31.64;98670.13;5030896;28;20063;-72
2023/08/18 10:59:08;;;;;;;5.13;0.63;;;;;;;43.00;32.51;98668.78;5027278;28;20673;-72
2023/08/18 11:01:34;;;;;;;0.97;0.60;;;;;;;42.68;32.49;98670.75;5026793;28;20287;-83
2023/08/18 11:04:00;;;;;;;3.00;0.67;;;;;;;42.84;31.83;98657.97;5045615;28;20726;-80
2023/08/18 11:06:26;;;;;;;2.10;0.95;;;;;;;43.97;30.73;98671.13;5039136;28;20382;-79
2023/08/18 11:08:53;;;;;;;1.40;0.70;;;;;;;44.73;30.90;98659.19;5051511;28;20056;-78
2023/08/18 11:11:19;;;;;;;1.40;0.70;;;;;;;43.77;31.88;98662.44;5033612;28;20028;-80
2023/08/18 11:13:45;;;;;;;1.77;0.50;;;;;;;43.64;31.28;98650.84;5056620;28;20937;-77
2023/08/18 11:16:10;;;;;;;0.95;0.55;;;;;;;44.02;31.30;98658.38;5036998;28;20026;-80
2023/08/18 11:18:36;;;;;;;2.58;0.50;;;;;;;43.00;31.77;98643.16;5038546;28;20027;-83
2023/08/18 11:21:01;;;;;;;2.08;0.68;;;;;;;44.60;29.94;98648.41;5027925;28;20037;-79
2023/08/18 11:23:27;;;;;;;4.95;0.80;;;;;;;43.51;31.44;98644.88;5032510;28;20099;-81
2023/08/18 11:25:52;;;;;;;2.53;1.10;;;;;;;43.73;31.93;98641.72;5061708;28;20032;-75